Open Full Screen Window  High Contrast Mode
June 26, 2016 3:00 PM EDT
Weather Information
Wind Direction
  ---
Wind Speed
  00 kt (0 mph)
Wind Gust
  00 kt (0 mph)
Altimeter
30.11 in
Visibility
10 SM
Temperature
28° C
82° F
Dewpoint
16° C
61° F
Humidity
48%
1hr Rain Fall
00.00 in.
24hr Rain Fall
00.00 in.
Sky Condition
Clear
VFR

METAR KPOV 261900Z AUTO 00000KT 10SM CLR 28/16 A3011 RMK AO2 T02810164

*Background is not an actual portrayal of the airport.